sensor_id;sensor_type;location;lat;lon;timestamp;temperature;humidity
61412;DHT22;47278;49.732;7.690;2023-05-29T00:01:10;10.10;99.90
61412;DHT22;47278;49.732;7.690;2023-05-29T00:03:35;10.20;99.90
61412;DHT22;47278;49.732;7.690;2023-05-29T00:06:02;10.10;99.90
61412;DHT22;47278;49.732;7.690;2023-05-29T00:08:28;10.00;99.90
61412;DHT22;47278;49.732;7.690;2023-05-29T00:10:53;9.90;99.90
61412;DHT22;47278;49.732;7.690;2023-05-29T00:13:20;10.00;99.90
61412;DHT22;47278;49.732;7.690;2023-05-29T00:15:45;10.10;99.90
61412;DHT22;47278;49.732;7.690;2023-05-29T00:18:11;10.00;99.90
61412;DHT22;47278;49.732;7.690;2023-05-29T00:20:37;10.10;99.90
61412;DHT22;47278;49.732;7.690;2023-05-29T00:23:03;10.10;99.90
61412;DHT22;47278;49.732;7.690;2023-05-29T00:25:31;10.00;99.90
61412;DHT22;47278;49.732;7.690;2023-05-29T00:27:57;9.90;99.90
61412;DHT22;47278;49.732;7.690;2023-05-29T00:30:23;9.90;99.90
61412;DHT22;47278;49.732;7.690;2023-05-29T00:32:50;9.80;99.90
61412;DHT22;47278;49.732;7.690;2023-05-29T00:35:17;9.80;99.90
61412;DHT22;47278;49.732;7.690;2023-05-29T00:37:43;9.80;99.90
61412;DHT22;47278;49.732;7.690;2023-05-29T00:40:09;9.70;99.90
61412;DHT22;47278;49.732;7.690;2023-05-29T00:42:35;9.70;99.90
61412;DHT22;47278;49.732;7.690;2023-05-29T00:45:01;9.70;99.90
61412;DHT22;47278;49.732;7.690;2023-05-29T00:47:27;9.80;99.90
61412;DHT22;47278;49.732;7.690;2023-05-29T00:49:53;9.80;99.90
61412;DHT22;47278;49.732;7.690;2023-05-29T00:52:19;9.80;99.90
61412;DHT22;47278;49.732;7.690;2023-05-29T00:54:45;9.60;99.90
61412;DHT22;47278;49.732;7.690;2023-05-29T00:57:12;9.60;99.90
61412;DHT22;47278;49.732;7.690;2023-05-29T00:59:38;9.60;99.90
61412;DHT22;47278;49.732;7.690;2023-05-29T01:02:05;9.40;99.90
61412;DHT22;47278;49.732;7.690;2023-05-29T01:04:31;9.40;99.90
61412;DHT22;47278;49.732;7.690;2023-05-29T01:07:00;9.40;99.90
61412;DHT22;47278;49.732;7.690;2023-05-29T01:09:28;9.40;99.90
61412;DHT22;47278;49.732;7.690;2023-05-29T01:12:00;9.30;99.90
61412;DHT22;47278;49.732;7.690;2023-05-29T01:22:20;9.30;99.90
61412;DHT22;47278;49.732;7.690;2023-05-29T01:27:25;9.30;99.90
61412;DHT22;47278;49.732;7.690;2023-05-29T01:29:53;9.20;99.90
61412;DHT22;47278;49.732;7.690;2023-05-29T01:32:21;9.10;99.90
61412;DHT22;47278;49.732;7.690;2023-05-29T01:34:46;9.00;99.90
61412;DHT22;47278;49.732;7.690;2023-05-29T01:37:12;9.10;99.90
61412;DHT22;47278;49.732;7.690;2023-05-29T01:39:38;9.10;99.90
61412;DHT22;47278;49.732;7.690;2023-05-29T01:42:05;9.20;99.90
61412;DHT22;47278;49.732;7.690;2023-05-29T01:44:31;9.00;99.90
61412;DHT22;47278;49.732;7.690;2023-05-29T01:46:57;9.00;99.90
61412;DHT22;47278;49.732;7.690;2023-05-29T01:49:23;9.00;99.90
61412;DHT22;47278;49.732;7.690;2023-05-29T01:51:50;9.00;99.90
61412;DHT22;47278;49.732;7.690;2023-05-29T01:54:16;9.00;99.90
61412;DHT22;47278;49.732;7.690;2023-05-29T01:56:43;9.00;99.90
61412;DHT22;47278;49.732;7.690;2023-05-29T01:59:13;8.90;99.90
61412;DHT22;47278;49.732;7.690;2023-05-29T02:01:39;8.90;99.90
61412;DHT22;47278;49.732;7.690;2023-05-29T02:04:05;8.90;99.90
61412;DHT22;47278;49.732;7.690;2023-05-29T02:06:31;8.80;99.90
61412;DHT22;47278;49.732;7.690;2023-05-29T02:08:58;8.80;99.90
61412;DHT22;47278;49.732;7.690;2023-05-29T02:11:25;8.80;99.90
61412;DHT22;47278;49.732;7.690;2023-05-29T02:13:51;8.70;99.90
61412;DHT22;47278;49.732;7.690;2023-05-29T02:16:18;8.80;99.90
61412;DHT22;47278;49.732;7.690;2023-05-29T02:18:45;8.70;99.90
61412;DHT22;47278;49.732;7.690;2023-05-29T02:21:11;8.70;99.90
61412;DHT22;47278;49.732;7.690;2023-05-29T02:23:37;8.70;99.90
61412;DHT22;47278;49.732;7.690;2023-05-29T02:26:03;8.70;99.90
61412;DHT22;47278;49.732;7.690;2023-05-29T02:28:30;8.60;99.90
61412;DHT22;47278;49.732;7.690;2023-05-29T02:30:55;8.70;99.90
61412;DHT22;47278;49.732;7.690;2023-05-29T02:33:21;8.60;99.90
61412;DHT22;47278;49.732;7.690;2023-05-29T02:35:47;8.60;99.90
61412;DHT22;47278;49.732;7.690;2023-05-29T02:38:13;8.50;99.90
61412;DHT22;47278;49.732;7.690;2023-05-29T02:40:39;8.50;99.90
61412;DHT22;47278;49.732;7.690;2023-05-29T02:43:05;8.50;99.90
61412;DHT22;47278;49.732;7.690;2023-05-29T02:45:31;8.50;99.90
61412;DHT22;47278;49.732;7.690;2023-05-29T02:47:56;8.40;99.90
61412;DHT22;47278;49.732;7.690;2023-05-29T02:50:22;8.50;99.90
61412;DHT22;47278;49.732;7.690;2023-05-29T02:52:48;8.40;99.90
61412;DHT22;47278;49.732;7.690;2023-05-29T02:55:14;8.30;99.90
61412;DHT22;47278;49.732;7.690;2023-05-29T02:57:40;8.30;99.90
61412;DHT22;47278;49.732;7.690;2023-05-29T03:00:07;8.20;99.90
61412;DHT22;47278;49.732;7.690;2023-05-29T03:02:33;8.20;99.90
61412;DHT22;47278;49.732;7.690;2023-05-29T03:05:00;8.10;99.90
61412;DHT22;47278;49.732;7.690;2023-05-29T03:07:26;8.00;99.90
61412;DHT22;47278;49.732;7.690;2023-05-29T03:09:52;8.00;99.90
61412;DHT22;47278;49.732;7.690;2023-05-29T03:12:17;7.90;99.90
61412;DHT22;47278;49.732;7.690;2023-05-29T03:14:44;7.90;99.90
61412;DHT22;47278;49.732;7.690;2023-05-29T03:17:10;8.00;99.90
61412;DHT22;47278;49.732;7.690;2023-05-29T03:19:36;8.00;99.90
61412;DHT22;47278;49.732;7.690;2023-05-29T03:22:03;8.00;99.90
61412;DHT22;47278;49.732;7.690;2023-05-29T03:24:28;8.10;99.90
61412;DHT22;47278;49.732;7.690;2023-05-29T03:26:54;8.00;99.90
61412;DHT22;47278;49.732;7.690;2023-05-29T03:29:21;8.00;99.90
61412;DHT22;47278;49.732;7.690;2023-05-29T03:31:47;8.00;99.90
61412;DHT22;47278;49.732;7.690;2023-05-29T03:34:12;7.90;99.90
61412;DHT22;47278;49.732;7.690;2023-05-29T03:36:38;7.80;99.90
61412;DHT22;47278;49.732;7.690;2023-05-29T03:39:04;7.90;99.90
61412;DHT22;47278;49.732;7.690;2023-05-29T03:41:30;7.90;99.90
61412;DHT22;47278;49.732;7.690;2023-05-29T03:43:56;8.00;99.90
61412;DHT22;47278;49.732;7.690;2023-05-29T03:46:22;8.10;99.90
61412;DHT22;47278;49.732;7.690;2023-05-29T03:48:48;7.90;99.90
61412;DHT22;47278;49.732;7.690;2023-05-29T03:51:13;7.90;99.90
61412;DHT22;47278;49.732;7.690;2023-05-29T03:53:39;7.90;99.90
61412;DHT22;47278;49.732;7.690;2023-05-29T03:56:05;8.00;99.90
61412;DHT22;47278;49.732;7.690;2023-05-29T03:58:31;8.00;99.90
61412;DHT22;47278;49.732;7.690;2023-05-29T04:00:57;7.90;99.90
61412;DHT22;47278;49.732;7.690;2023-05-29T04:03:23;7.90;99.90
61412;DHT22;47278;49.732;7.690;2023-05-29T04:05:48;8.00;99.90
61412;DHT22;47278;49.732;7.690;2023-05-29T04:08:14;8.00;99.90
61412;DHT22;47278;49.732;7.690;2023-05-29T04:10:40;7.90;99.90
61412;DHT22;47278;49.732;7.690;2023-05-29T04:13:06;7.90;99.90
61412;DHT22;47278;49.732;7.690;2023-05-29T04:15:32;8.00;99.90
61412;DHT22;47278;49.732;7.690;2023-05-29T04:18:01;8.00;99.90
61412;DHT22;47278;49.732;7.690;2023-05-29T04:20:27;7.90;99.90
61412;DHT22;47278;49.732;7.690;2023-05-29T04:22:52;7.90;99.90
61412;DHT22;47278;49.732;7.690;2023-05-29T04:25:18;7.90;99.90
61412;DHT22;47278;49.732;7.690;2023-05-29T04:27:44;8.00;99.90
61412;DHT22;47278;49.732;7.690;2023-05-29T04:30:14;8.10;99.90
61412;DHT22;47278;49.732;7.690;2023-05-29T04:32:40;8.20;99.90
61412;DHT22;47278;49.732;7.690;2023-05-29T04:35:06;8.10;99.90
61412;DHT22;47278;49.732;7.690;2023-05-29T04:37:32;8.10;99.90
61412;DHT22;47278;49.732;7.690;2023-05-29T04:40:03;8.20;99.90
61412;DHT22;47278;49.732;7.690;2023-05-29T04:42:33;8.30;99.90
61412;DHT22;47278;49.732;7.690;2023-05-29T04:44:59;8.30;99.90
61412;DHT22;47278;49.732;7.690;2023-05-29T04:47:26;8.40;99.90
61412;DHT22;47278;49.732;7.690;2023-05-29T04:49:51;8.50;99.90
61412;DHT22;47278;49.732;7.690;2023-05-29T04:52:17;8.50;99.90
61412;DHT22;47278;49.732;7.690;2023-05-29T04:54:43;8.50;99.90
61412;DHT22;47278;49.732;7.690;2023-05-29T04:57:09;8.60;99.90
61412;DHT22;47278;49.732;7.690;2023-05-29T04:59:35;8.70;99.90
61412;DHT22;47278;49.732;7.690;2023-05-29T05:02:01;8.70;99.90
61412;DHT22;47278;49.732;7.690;2023-05-29T05:04:27;8.70;99.90
61412;DHT22;47278;49.732;7.690;2023-05-29T05:06:52;8.70;99.90
61412;DHT22;47278;49.732;7.690;2023-05-29T05:09:18;8.80;99.90
61412;DHT22;47278;49.732;7.690;2023-05-29T05:11:44;8.80;99.90
61412;DHT22;47278;49.732;7.690;2023-05-29T05:14:10;8.90;99.90
61412;DHT22;47278;49.732;7.690;2023-05-29T05:16:36;9.00;99.90
61412;DHT22;47278;49.732;7.690;2023-05-29T05:19:01;9.10;99.90
61412;DHT22;47278;49.732;7.690;2023-05-29T05:21:27;9.20;99.90
61412;DHT22;47278;49.732;7.690;2023-05-29T05:23:56;9.30;99.90
61412;DHT22;47278;49.732;7.690;2023-05-29T05:26:21;9.30;99.90
61412;DHT22;47278;49.732;7.690;2023-05-29T05:28:54;9.40;99.90
61412;DHT22;47278;49.732;7.690;2023-05-29T05:31:19;9.50;99.90
61412;DHT22;47278;49.732;7.690;2023-05-29T05:33:45;9.60;99.90
61412;DHT22;47278;49.732;7.690;2023-05-29T05:36:11;9.70;99.90
61412;DHT22;47278;49.732;7.690;2023-05-29T05:38:37;9.80;99.90
61412;DHT22;47278;49.732;7.690;2023-05-29T05:41:03;9.80;99.90
61412;DHT22;47278;49.732;7.690;2023-05-29T05:43:28;10.00;99.90
61412;DHT22;47278;49.732;7.690;2023-05-29T05:45:55;10.10;99.90
61412;DHT22;47278;49.732;7.690;2023-05-29T05:48:21;10.20;99.90
61412;DHT22;47278;49.732;7.690;2023-05-29T05:50:47;10.30;99.90
61412;DHT22;47278;49.732;7.690;2023-05-29T05:53:12;10.50;99.90
61412;DHT22;47278;49.732;7.690;2023-05-29T05:55:38;10.60;99.90
61412;DHT22;47278;49.732;7.690;2023-05-29T05:58:04;10.70;99.90
61412;DHT22;47278;49.732;7.690;2023-05-29T06:00:30;10.90;99.90
61412;DHT22;47278;49.732;7.690;2023-05-29T06:02:55;11.00;99.90
61412;DHT22;47278;49.732;7.690;2023-05-29T06:05:22;11.10;99.90
61412;DHT22;47278;49.732;7.690;2023-05-29T06:07:48;11.30;99.90
61412;DHT22;47278;49.732;7.690;2023-05-29T06:10:14;11.40;99.90
61412;DHT22;47278;49.732;7.690;2023-05-29T06:12:40;11.50;99.90
61412;DHT22;47278;49.732;7.690;2023-05-29T06:15:09;11.60;99.90
61412;DHT22;47278;49.732;7.690;2023-05-29T06:17:34;11.80;99.90
61412;DHT22;47278;49.732;7.690;2023-05-29T06:20:00;11.90;99.90
61412;DHT22;47278;49.732;7.690;2023-05-29T06:22:26;12.10;99.90
61412;DHT22;47278;49.732;7.690;2023-05-29T06:24:52;12.20;99.90
61412;DHT22;47278;49.732;7.690;2023-05-29T06:27:18;12.40;99.90
61412;DHT22;47278;49.732;7.690;2023-05-29T06:29:45;12.50;99.90
61412;DHT22;47278;49.732;7.690;2023-05-29T06:32:11;12.60;99.90
61412;DHT22;47278;49.732;7.690;2023-05-29T06:34:37;12.70;99.90
61412;DHT22;47278;49.732;7.690;2023-05-29T06:37:02;12.90;99.90
61412;DHT22;47278;49.732;7.690;2023-05-29T06:39:28;13.00;99.90
61412;DHT22;47278;49.732;7.690;2023-05-29T06:41:54;13.30;99.90
61412;DHT22;47278;49.732;7.690;2023-05-29T06:44:20;13.50;99.90
61412;DHT22;47278;49.732;7.690;2023-05-29T06:46:46;13.60;99.90
61412;DHT22;47278;49.732;7.690;2023-05-29T06:49:12;13.80;99.90
61412;DHT22;47278;49.732;7.690;2023-05-29T06:51:38;14.00;99.90
61412;DHT22;47278;49.732;7.690;2023-05-29T06:54:03;14.20;99.90
61412;DHT22;47278;49.732;7.690;2023-05-29T06:56:29;14.40;99.90
61412;DHT22;47278;49.732;7.690;2023-05-29T06:58:55;14.60;99.90
61412;DHT22;47278;49.732;7.690;2023-05-29T07:01:22;14.70;99.90
61412;DHT22;47278;49.732;7.690;2023-05-29T07:03:51;14.90;99.90
61412;DHT22;47278;49.732;7.690;2023-05-29T07:06:17;15.20;99.90
61412;DHT22;47278;49.732;7.690;2023-05-29T07:08:42;15.40;99.90
61412;DHT22;47278;49.732;7.690;2023-05-29T07:11:08;15.60;99.90
61412;DHT22;47278;49.732;7.690;2023-05-29T07:13:34;15.70;99.90
61412;DHT22;47278;49.732;7.690;2023-05-29T07:16:01;15.90;99.90
61412;DHT22;47278;49.732;7.690;2023-05-29T07:18:26;16.20;99.90
61412;DHT22;47278;49.732;7.690;2023-05-29T07:23:20;16.50;99.90
61412;DHT22;47278;49.732;7.690;2023-05-29T07:25:46;16.70;99.90
61412;DHT22;47278;49.732;7.690;2023-05-29T07:28:12;16.80;99.90
61412;DHT22;47278;49.732;7.690;2023-05-29T07:30:38;17.10;99.90
61412;DHT22;47278;49.732;7.690;2023-05-29T07:33:04;17.30;99.90
61412;DHT22;47278;49.732;7.690;2023-05-29T07:35:30;17.50;99.90
61412;DHT22;47278;49.732;7.690;2023-05-29T07:37:58;17.50;99.90
61412;DHT22;47278;49.732;7.690;2023-05-29T07:40:24;17.60;99.90
61412;DHT22;47278;49.732;7.690;2023-05-29T07:45:53;17.90;99.90
61412;DHT22;47278;49.732;7.690;2023-05-29T07:48:18;18.00;99.90
61412;DHT22;47278;49.732;7.690;2023-05-29T07:50:44;18.00;99.90
61412;DHT22;47278;49.732;7.690;2023-05-29T07:53:10;18.10;99.90
61412;DHT22;47278;49.732;7.690;2023-05-29T07:55:36;18.30;99.90
61412;DHT22;47278;49.732;7.690;2023-05-29T07:58:02;18.30;99.90
61412;DHT22;47278;49.732;7.690;2023-05-29T08:00:28;18.40;99.90
61412;DHT22;47278;49.732;7.690;2023-05-29T08:02:54;18.50;99.90
61412;DHT22;47278;49.732;7.690;2023-05-29T08:05:19;18.60;99.90
61412;DHT22;47278;49.732;7.690;2023-05-29T08:07:46;18.60;99.90
61412;DHT22;47278;49.732;7.690;2023-05-29T08:10:13;18.70;99.90
61412;DHT22;47278;49.732;7.690;2023-05-29T08:12:39;18.80;99.90
61412;DHT22;47278;49.732;7.690;2023-05-29T08:15:05;18.90;99.90
61412;DHT22;47278;49.732;7.690;2023-05-29T08:17:31;18.90;99.90
61412;DHT22;47278;49.732;7.690;2023-05-29T08:19:56;19.00;99.90
61412;DHT22;47278;49.732;7.690;2023-05-29T08:22:27;19.20;99.90
61412;DHT22;47278;49.732;7.690;2023-05-29T08:24:53;19.30;99.90
61412;DHT22;47278;49.732;7.690;2023-05-29T08:27:19;19.30;99.90
61412;DHT22;47278;49.732;7.690;2023-05-29T08:29:45;19.40;99.90
61412;DHT22;47278;49.732;7.690;2023-05-29T08:32:12;19.50;99.90
61412;DHT22;47278;49.732;7.690;2023-05-29T08:34:38;19.60;99.90
61412;DHT22;47278;49.732;7.690;2023-05-29T08:37:04;19.70;99.90
61412;DHT22;47278;49.732;7.690;2023-05-29T08:39:30;19.90;99.90
61412;DHT22;47278;49.732;7.690;2023-05-29T08:42:01;20.00;99.90
61412;DHT22;47278;49.732;7.690;2023-05-29T08:44:29;20.00;99.90
61412;DHT22;47278;49.732;7.690;2023-05-29T08:46:59;20.40;99.90
61412;DHT22;47278;49.732;7.690;2023-05-29T08:49:29;20.50;99.90
61412;DHT22;47278;49.732;7.690;2023-05-29T08:52:05;20.60;99.90
61412;DHT22;47278;49.732;7.690;2023-05-29T08:54:33;20.50;99.90
61412;DHT22;47278;49.732;7.690;2023-05-29T08:56:59;21.00;99.90
61412;DHT22;47278;49.732;7.690;2023-05-29T08:59:29;21.00;99.90
61412;DHT22;47278;49.732;7.690;2023-05-29T09:01:56;21.10;99.90
61412;DHT22;47278;49.732;7.690;2023-05-29T09:04:22;21.20;99.90
61412;DHT22;47278;49.732;7.690;2023-05-29T09:06:48;21.40;99.90
61412;DHT22;47278;49.732;7.690;2023-05-29T09:09:14;21.70;99.90
61412;DHT22;47278;49.732;7.690;2023-05-29T09:11:40;21.60;99.90
61412;DHT22;47278;49.732;7.690;2023-05-29T09:14:11;21.70;99.90
61412;DHT22;47278;49.732;7.690;2023-05-29T09:16:41;21.70;99.90
61412;DHT22;47278;49.732;7.690;2023-05-29T09:19:08;21.90;99.90
61412;DHT22;47278;49.732;7.690;2023-05-29T09:21:33;22.00;99.90
61412;DHT22;47278;49.732;7.690;2023-05-29T09:24:03;22.10;99.90
61412;DHT22;47278;49.732;7.690;2023-05-29T09:26:29;22.40;99.90
61412;DHT22;47278;49.732;7.690;2023-05-29T09:28:56;22.30;99.90
61412;DHT22;47278;49.732;7.690;2023-05-29T09:31:22;22.50;99.90
61412;DHT22;47278;49.732;7.690;2023-05-29T09:33:48;22.50;99.90
61412;DHT22;47278;49.732;7.690;2023-05-29T09:36:20;22.50;99.90
61412;DHT22;47278;49.732;7.690;2023-05-29T09:38:47;22.70;99.90
61412;DHT22;47278;49.732;7.690;2023-05-29T09:41:13;22.80;99.90
61412;DHT22;47278;49.732;7.690;2023-05-29T09:43:46;22.90;99.90
61412;DHT22;47278;49.732;7.690;2023-05-29T09:46:14;23.10;99.90
61412;DHT22;47278;49.732;7.690;2023-05-29T09:48:40;23.20;99.90
61412;DHT22;47278;49.732;7.690;2023-05-29T09:51:08;23.20;99.90
61412;DHT22;47278;49.732;7.690;2023-05-29T09:53:45;23.30;99.90
61412;DHT22;47278;49.732;7.690;2023-05-29T09:56:11;23.40;99.90
61412;DHT22;47278;49.732;7.690;2023-05-29T09:58:39;23.10;99.90
61412;DHT22;47278;49.732;7.690;2023-05-29T10:01:12;23.20;99.90
61412;DHT22;47278;49.732;7.690;2023-05-29T10:03:38;23.70;99.90
61412;DHT22;47278;49.732;7.690;2023-05-29T10:06:03;23.50;99.90
61412;DHT22;47278;49.732;7.690;2023-05-29T10:08:30;23.90;99.90
61412;DHT22;47278;49.732;7.690;2023-05-29T10:11:04;23.80;99.90
61412;DHT22;47278;49.732;7.690;2023-05-29T10:13:36;24.00;99.90
61412;DHT22;47278;49.732;7.690;2023-05-29T10:16:03;24.10;99.90
61412;DHT22;47278;49.732;7.690;2023-05-29T10:18:32;24.10;99.90
61412;DHT22;47278;49.732;7.690;2023-05-29T10:21:00;24.10;99.90
61412;DHT22;47278;49.732;7.690;2023-05-29T10:23:28;24.10;99.90
61412;DHT22;47278;49.732;7.690;2023-05-29T10:29:43;24.50;99.90
61412;DHT22;47278;49.732;7.690;2023-05-29T10:39:35;24.50;99.90
61412;DHT22;47278;49.732;7.690;2023-05-29T10:42:01;24.80;99.90
61412;DHT22;47278;49.732;7.690;2023-05-29T10:49:23;24.50;99.90
61412;DHT22;47278;49.732;7.690;2023-05-29T10:51:49;24.90;99.90
61412;DHT22;47278;49.732;7.690;2023-05-29T10:54:15;25.10;99.90
61412;DHT22;47278;49.732;7.690;2023-05-29T10:56:44;25.00;99.90
61412;DHT22;47278;49.732;7.690;2023-05-29T10:59:17;24.90;99.90
61412;DHT22;47278;49.732;7.690;2023-05-29T11:01:42;24.90;99.90
61412;DHT22;47278;49.732;7.690;2023-05-29T11:06:45;25.10;99.90
61412;DHT22;47278;49.732;7.690;2023-05-29T11:14:55;25.30;99.90
61412;DHT22;47278;49.732;7.690;2023-05-29T11:17:31;25.40;99.90
61412;DHT22;47278;49.732;7.690;2023-05-29T11:20:00;25.30;99.90
61412;DHT22;47278;49.732;7.690;2023-05-29T11:22:27;25.50;99.90
61412;DHT22;47278;49.732;7.690;2023-05-29T11:24:56;25.90;99.90
61412;DHT22;47278;49.732;7.690;2023-05-29T11:27:23;25.70;99.90
61412;DHT22;47278;49.732;7.690;2023-05-29T11:29:49;25.80;99.90
61412;DHT22;47278;49.732;7.690;2023-05-29T11:32:19;26.00;99.90
61412;DHT22;47278;49.732;7.690;2023-05-29T11:34:46;26.00;99.90
61412;DHT22;47278;49.732;7.690;2023-05-29T11:37:12;26.00;99.90
61412;DHT22;47278;49.732;7.690;2023-05-29T11:39:38;26.20;99.90
61412;DHT22;47278;49.732;7.690;2023-05-29T11:42:04;26.20;99.90
61412;DHT22;47278;49.732;7.690;2023-05-29T11:44:31;26.30;99.90
61412;DHT22;47278;49.732;7.690;2023-05-29T11:49:28;26.30;99.90
61412;DHT22;47278;49.732;7.690;2023-05-29T11:51:54;26.50;99.90
61412;DHT22;47278;49.732;7.690;2023-05-29T11:54:20;26.80;99.90
61412;DHT22;47278;49.732;7.690;2023-05-29T11:56:47;27.00;99.90
61412;DHT22;47278;49.732;7.690;2023-05-29T11:59:12;27.20;99.90
61412;DHT22;47278;49.732;7.690;2023-05-29T12:01:38;26.90;99.40
61412;DHT22;47278;49.732;7.690;2023-05-29T12:04:13;26.80;99.90
61412;DHT22;47278;49.732;7.690;2023-05-29T12:06:39;26.70;98.80
61412;DHT22;47278;49.732;7.690;2023-05-29T12:09:04;26.60;98.70
61412;DHT22;47278;49.732;7.690;2023-05-29T12:11:31;26.90;99.90
61412;DHT22;47278;49.732;7.690;2023-05-29T12:14:00;27.00;98.60
61412;DHT22;47278;49.732;7.690;2023-05-29T12:16:30;27.20;97.80
61412;DHT22;47278;49.732;7.690;2023-05-29T12:18:56;27.10;99.90
61412;DHT22;47278;49.732;7.690;2023-05-29T12:21:22;27.20;98.80
61412;DHT22;47278;49.732;7.690;2023-05-29T12:23:51;27.10;97.20
61412;DHT22;47278;49.732;7.690;2023-05-29T12:26:17;27.20;97.40
61412;DHT22;47278;49.732;7.690;2023-05-29T12:28:45;27.50;99.60
61412;DHT22;47278;49.732;7.690;2023-05-29T12:31:11;27.50;99.00
61412;DHT22;47278;49.732;7.690;2023-05-29T12:33:42;27.60;96.30
61412;DHT22;47278;49.732;7.690;2023-05-29T12:36:08;27.40;94.90
61412;DHT22;47278;49.732;7.690;2023-05-29T12:38:45;27.10;94.80
61412;DHT22;47278;49.732;7.690;2023-05-29T12:41:29;27.70;99.80
61412;DHT22;47278;49.732;7.690;2023-05-29T12:43:55;27.90;96.30
61412;DHT22;47278;49.732;7.690;2023-05-29T12:46:22;27.90;96.80
61412;DHT22;47278;49.732;7.690;2023-05-29T12:48:48;27.60;95.00
61412;DHT22;47278;49.732;7.690;2023-05-29T12:51:17;27.50;96.80
61412;DHT22;47278;49.732;7.690;2023-05-29T12:53:43;27.30;94.00
61412;DHT22;47278;49.732;7.690;2023-05-29T12:56:08;27.60;94.50
61412;DHT22;47278;49.732;7.690;2023-05-29T12:58:36;27.80;96.50
61412;DHT22;47278;49.732;7.690;2023-05-29T13:01:01;28.10;97.90
61412;DHT22;47278;49.732;7.690;2023-05-29T13:03:27;27.80;97.10
61412;DHT22;47278;49.732;7.690;2023-05-29T13:05:53;28.00;96.40
61412;DHT22;47278;49.732;7.690;2023-05-29T13:08:18;28.10;97.60
61412;DHT22;47278;49.732;7.690;2023-05-29T13:10:47;28.00;97.90
61412;DHT22;47278;49.732;7.690;2023-05-29T13:13:13;28.10;97.10
61412;DHT22;47278;49.732;7.690;2023-05-29T13:15:39;28.20;97.40
61412;DHT22;47278;49.732;7.690;2023-05-29T13:18:06;28.30;96.30
61412;DHT22;47278;49.732;7.690;2023-05-29T13:20:31;28.30;95.70
61412;DHT22;47278;49.732;7.690;2023-05-29T13:23:00;28.30;96.70
61412;DHT22;47278;49.732;7.690;2023-05-29T13:25:26;28.20;94.00
61412;DHT22;47278;49.732;7.690;2023-05-29T13:27:53;28.20;94.80
61412;DHT22;47278;49.732;7.690;2023-05-29T13:30:20;28.20;96.30
61412;DHT22;47278;49.732;7.690;2023-05-29T13:32:47;28.00;94.60
61412;DHT22;47278;49.732;7.690;2023-05-29T13:35:13;28.50;96.10
61412;DHT22;47278;49.732;7.690;2023-05-29T13:37:39;28.90;96.60
61412;DHT22;47278;49.732;7.690;2023-05-29T13:40:05;28.70;93.90
61412;DHT22;47278;49.732;7.690;2023-05-29T13:42:31;28.60;94.00
61412;DHT22;47278;49.732;7.690;2023-05-29T13:44:57;28.50;95.90
61412;DHT22;47278;49.732;7.690;2023-05-29T13:47:23;29.00;95.40
61412;DHT22;47278;49.732;7.690;2023-05-29T13:49:49;29.00;95.60
61412;DHT22;47278;49.732;7.690;2023-05-29T13:52:15;28.60;93.60
61412;DHT22;47278;49.732;7.690;2023-05-29T13:54:42;28.50;93.60
61412;DHT22;47278;49.732;7.690;2023-05-29T13:57:07;28.60;94.90
61412;DHT22;47278;49.732;7.690;2023-05-29T13:59:33;28.50;93.40
61412;DHT22;47278;49.732;7.690;2023-05-29T14:02:00;28.60;94.00
61412;DHT22;47278;49.732;7.690;2023-05-29T14:04:26;28.60;93.00
61412;DHT22;47278;49.732;7.690;2023-05-29T14:06:55;28.60;92.50
61412;DHT22;47278;49.732;7.690;2023-05-29T14:09:21;28.70;92.90
61412;DHT22;47278;49.732;7.690;2023-05-29T14:11:54;28.70;93.70
61412;DHT22;47278;49.732;7.690;2023-05-29T14:14:19;28.40;94.30
61412;DHT22;47278;49.732;7.690;2023-05-29T14:16:45;28.60;95.60
61412;DHT22;47278;49.732;7.690;2023-05-29T14:19:11;28.60;94.40
61412;DHT22;47278;49.732;7.690;2023-05-29T14:21:37;28.60;95.20
61412;DHT22;47278;49.732;7.690;2023-05-29T14:24:03;29.00;94.80
61412;DHT22;47278;49.732;7.690;2023-05-29T14:26:28;29.20;93.80
61412;DHT22;47278;49.732;7.690;2023-05-29T14:28:54;28.90;93.00
61412;DHT22;47278;49.732;7.690;2023-05-29T14:31:21;29.00;92.70
61412;DHT22;47278;49.732;7.690;2023-05-29T14:33:46;28.90;92.20
61412;DHT22;47278;49.732;7.690;2023-05-29T14:36:12;28.70;92.30
61412;DHT22;47278;49.732;7.690;2023-05-29T14:38:38;28.70;94.10
61412;DHT22;47278;49.732;7.690;2023-05-29T14:41:04;28.80;93.60
61412;DHT22;47278;49.732;7.690;2023-05-29T14:43:30;28.80;91.90
61412;DHT22;47278;49.732;7.690;2023-05-29T14:45:56;28.70;94.70
61412;DHT22;47278;49.732;7.690;2023-05-29T14:48:22;28.90;94.10
61412;DHT22;47278;49.732;7.690;2023-05-29T14:50:48;28.90;94.70
61412;DHT22;47278;49.732;7.690;2023-05-29T14:53:13;28.90;92.50
61412;DHT22;47278;49.732;7.690;2023-05-29T14:55:39;29.00;95.10
61412;DHT22;47278;49.732;7.690;2023-05-29T14:58:05;29.10;94.40
61412;DHT22;47278;49.732;7.690;2023-05-29T15:00:31;29.10;93.80
61412;DHT22;47278;49.732;7.690;2023-05-29T15:02:57;29.60;93.40
61412;DHT22;47278;49.732;7.690;2023-05-29T15:05:27;29.40;92.90
61412;DHT22;47278;49.732;7.690;2023-05-29T15:07:53;29.30;94.90
61412;DHT22;47278;49.732;7.690;2023-05-29T15:10:24;29.20;91.10
61412;DHT22;47278;49.732;7.690;2023-05-29T15:12:51;29.20;90.40
61412;DHT22;47278;49.732;7.690;2023-05-29T15:15:29;29.20;90.20
61412;DHT22;47278;49.732;7.690;2023-05-29T15:17:55;29.30;90.70
61412;DHT22;47278;49.732;7.690;2023-05-29T15:20:22;29.50;89.30
61412;DHT22;47278;49.732;7.690;2023-05-29T15:22:49;30.30;94.20
61412;DHT22;47278;49.732;7.690;2023-05-29T15:25:15;31.70;91.70
61412;DHT22;47278;49.732;7.690;2023-05-29T15:27:41;31.60;89.50
61412;DHT22;47278;49.732;7.690;2023-05-29T15:30:08;32.20;89.10
61412;DHT22;47278;49.732;7.690;2023-05-29T15:32:34;32.80;85.00
61412;DHT22;47278;49.732;7.690;2023-05-29T15:35:01;32.50;83.70
61412;DHT22;47278;49.732;7.690;2023-05-29T15:37:26;32.00;85.80
61412;DHT22;47278;49.732;7.690;2023-05-29T15:39:54;31.70;86.90
61412;DHT22;47278;49.732;7.690;2023-05-29T15:42:20;31.80;87.90
61412;DHT22;47278;49.732;7.690;2023-05-29T15:44:48;31.80;84.70
61412;DHT22;47278;49.732;7.690;2023-05-29T15:47:14;31.30;86.10
61412;DHT22;47278;49.732;7.690;2023-05-29T15:49:40;31.40;82.40
61412;DHT22;47278;49.732;7.690;2023-05-29T15:52:06;31.40;83.50
61412;DHT22;47278;49.732;7.690;2023-05-29T15:54:33;31.60;82.90
61412;DHT22;47278;49.732;7.690;2023-05-29T15:56:59;31.20;84.20
61412;DHT22;47278;49.732;7.690;2023-05-29T15:59:28;31.70;85.00
61412;DHT22;47278;49.732;7.690;2023-05-29T16:01:54;31.50;82.60
61412;DHT22;47278;49.732;7.690;2023-05-29T16:04:20;31.20;84.40
61412;DHT22;47278;49.732;7.690;2023-05-29T16:06:45;31.30;86.00
61412;DHT22;47278;49.732;7.690;2023-05-29T16:09:11;30.10;82.40
61412;DHT22;47278;49.732;7.690;2023-05-29T16:11:37;30.30;86.40
61412;DHT22;47278;49.732;7.690;2023-05-29T16:14:03;30.00;83.20